Time;durP1;ratioP1;P1;durP2;ratioP2;P2;SDS_P1;SDS_P2;PMS_P1;PMS_P2;Temp;Humidity;BMP_temperature;BMP_pressure;BME280_temperature;BME280_humidity;BME280_pressure;Samples;Min_cycle;Max_cycle;Signal;HPM_P1;HPM_P2
2021/11/17 02:26:50;;;;;;;63.90;24.53;;;8.90;99.90;;;;;;5076205;28;20183;-85
2021/11/17 02:29:42;;;;;;;60.97;24.27;;;8.90;99.90;;;;;;5059070;28;20571;-86
2021/11/17 02:32:30;;;;;;;67.07;25.20;;;8.90;99.90;;;;;;5075195;28;20206;-86
2021/11/17 02:34:59;;;;;;;66.83;24.63;;;8.90;99.90;;;;;;5074331;28;20179;-86
2021/11/17 02:37:51;;;;;;;73.77;25.23;;;9.00;99.90;;;;;;5095299;28;20184;-86
2021/11/17 02:40:37;;;;;;;69.13;26.20;;;9.00;99.90;;;;;;5074368;28;20248;-86
2021/11/17 02:43:28;;;;;;;66.63;25.43;;;9.10;99.90;;;;;;5061520;28;20190;-85
2021/11/17 02:46:19;;;;;;;67.47;23.73;;;9.10;99.90;;;;;;5061748;28;20183;-87
2021/11/17 02:49:05;;;;;;;66.03;24.90;;;9.10;99.90;;;;;;5057181;28;20192;-85
2021/11/17 02:51:58;;;;;;;67.47;25.37;;;9.10;99.90;;;;;;5070475;28;20214;-86
2021/11/17 02:54:59;;;;;;;67.23;24.73;;;9.10;99.90;;;;;;5044819;28;20248;-85
2021/11/17 02:57:31;;;;;;;73.27;25.20;;;9.20;99.90;;;;;;5047327;28;20717;-86
2021/11/17 03:00:14;;;;;;;68.27;25.13;;;9.20;99.90;;;;;;5058648;28;20222;-85
2021/11/17 03:02:52;;;;;;;69.73;25.00;;;9.30;99.90;;;;;;5069734;28;20194;-86
2021/11/17 03:05:39;;;;;;;70.00;25.43;;;9.30;99.90;;;;;;5073956;28;20183;-86
2021/11/17 03:08:40;;;;;;;72.53;26.23;;;9.30;99.90;;;;;;5055903;28;20259;-85
2021/11/17 03:11:21;;;;;;;69.37;25.13;;;9.20;99.90;;;;;;5012784;28;20202;-85
2021/11/17 03:14:06;;;;;;;72.27;25.67;;;9.20;99.90;;;;;;5025949;28;20210;-85
2021/11/17 03:16:53;;;;;;;74.23;26.37;;;9.30;99.90;;;;;;5059724;28;20187;-86
2021/11/17 03:19:25;;;;;;;77.77;25.90;;;9.20;99.90;;;;;;5058670;28;20323;-85
2021/11/17 03:21:56;;;;;;;76.70;26.50;;;9.30;99.90;;;;;;5057496;28;20265;-85
2021/11/17 03:24:31;;;;;;;73.80;26.87;;;9.30;99.90;;;;;;5046829;28;20187;-85
2021/11/17 03:27:09;;;;;;;82.73;27.57;;;9.20;99.90;;;;;;5058892;28;20187;-85
2021/11/17 03:29:35;;;;;;;74.17;26.63;;;9.20;99.90;;;;;;5060976;28;20294;-85
2021/11/17 03:32:25;;;;;;;84.70;27.13;;;9.20;99.90;;;;;;5058548;28;20280;-86
2021/11/17 03:35:24;;;;;;;77.83;28.67;;;9.20;99.90;;;;;;5075553;28;20186;-85
2021/11/17 03:38:17;;;;;;;84.00;27.77;;;9.30;99.90;;;;;;5060959;28;20183;-85
2021/11/17 03:40:55;;;;;;;84.07;29.60;;;9.30;99.90;;;;;;5043321;28;20264;-86
2021/11/17 03:43:39;;;;;;;80.93;27.63;;;9.30;99.90;;;;;;5076231;28;20214;-86
2021/11/17 03:46:17;;;;;;;90.47;28.53;;;9.30;99.90;;;;;;5076700;28;20187;-87
2021/11/17 03:48:49;;;;;;;84.73;28.33;;;9.30;99.90;;;;;;5077700;28;20194;-88
2021/11/17 03:51:27;;;;;;;86.60;28.03;;;9.30;99.90;;;;;;5077583;28;20210;-86
2021/11/17 03:54:26;;;;;;;82.03;27.53;;;9.30;99.90;;;;;;5047008;28;20283;-87
2021/11/17 03:57:27;;;;;;;74.20;26.17;;;9.30;99.90;;;;;;5088659;28;20214;-86
2021/11/17 04:00:20;;;;;;;82.57;28.53;;;9.40;99.90;;;;;;5056123;28;20218;-86
2021/11/17 04:03:05;;;;;;;80.83;28.43;;;9.50;99.90;;;;;;5079045;28;20179;-86
2021/11/17 04:05:53;;;;;;;77.97;27.93;;;9.50;99.90;;;;;;5061224;28;20186;-86
2021/11/17 04:08:48;;;;;;;76.93;27.33;;;9.50;99.90;;;;;;5082169;28;20194;-86
2021/11/17 04:11:39;;;;;;;78.23;27.63;;;9.50;99.90;;;;;;5024543;28;20210;-86
2021/11/17 04:14:07;;;;;;;83.57;27.30;;;9.60;99.90;;;;;;5060027;28;20197;-86
2021/11/17 04:16:42;;;;;;;101.35;35.63;;;9.70;99.90;;;;;;5093774;28;20902;-86
2021/11/17 04:19:24;;;;;;;90.37;29.80;;;9.50;99.90;;;;;;5088801;28;20188;-87
2021/11/17 04:22:11;;;;;;;91.13;28.27;;;9.60;99.90;;;;;;5045921;28;20196;-87
2021/11/17 04:25:12;;;;;;;89.30;28.90;;;9.60;99.90;;;;;;5096222;28;20207;-86
2021/11/17 04:27:47;;;;;;;86.57;28.93;;;9.60;99.90;;;;;;5058800;28;20188;-88
2021/11/17 04:30:15;;;;;;;91.60;28.03;;;9.60;99.90;;;;;;5065304;28;20673;-85
2021/11/17 04:32:53;;;;;;;94.17;29.53;;;9.60;99.90;;;;;;5060436;28;20184;-85
2021/11/17 04:35:44;;;;;;;91.30;29.43;;;9.70;99.90;;;;;;5090184;28;20192;-86
2021/11/17 04:38:36;;;;;;;94.63;29.20;;;9.70;99.90;;;;;;5074178;28;20225;-85
2021/11/17 04:41:42;;;;;;;95.90;30.73;;;9.50;99.90;;;;;;5062707;28;20207;-85
2021/11/17 04:44:11;;;;;;;94.03;29.63;;;9.50;99.90;;;;;;5060334;28;20187;-85
2021/11/17 04:47:02;;;;;;;97.37;29.67;;;9.50;99.90;;;;;;5076610;28;20312;-85
2021/11/17 04:49:38;;;;;;;96.53;30.97;;;9.50;99.90;;;;;;5072414;28;20207;-86
2021/11/17 04:52:26;;;;;;;96.70;31.43;;;9.40;99.90;;;;;;5045350;28;20594;-85
2021/11/17 04:55:16;;;;;;;99.90;30.70;;;9.30;99.90;;;;;;5059568;28;20218;-86
2021/11/17 04:58:01;;;;;;;94.47;30.27;;;9.30;99.90;;;;;;5094095;28;20202;-86
2021/11/17 05:00:38;;;;;;;92.07;28.10;;;9.40;99.90;;;;;;5078672;28;20200;-84
2021/11/17 05:03:25;;;;;;;90.13;29.67;;;9.40;99.90;;;;;;5077075;28;20221;-84
2021/11/17 05:06:12;;;;;;;86.93;28.67;;;9.40;99.90;;;;;;5060526;28;20187;-86
2021/11/17 05:08:53;;;;;;;77.40;27.40;;;9.20;99.90;;;;;;5058031;28;20317;-86
2021/11/17 05:11:56;;;;;;;83.77;27.43;;;9.20;99.90;;;;;;5076709;28;20186;-84
2021/11/17 05:14:44;;;;;;;86.77;27.63;;;9.30;99.90;;;;;;5058212;28;20186;-84
2021/11/17 05:17:35;;;;;;;80.67;27.27;;;9.40;99.90;;;;;;5056895;28;20661;-83
2021/11/17 05:20:20;;;;;;;84.63;29.13;;;9.50;99.90;;;;;;5029524;28;20249;-86
2021/11/17 05:23:04;;;;;;;81.43;27.87;;;9.50;99.90;;;;;;5059263;28;20194;-86
2021/11/17 05:25:46;;;;;;;78.10;27.53;;;9.50;99.90;;;;;;5061293;28;20179;-87
2021/11/17 05:28:26;;;;;;;80.33;27.97;;;9.50;99.90;;;;;;5056402;28;20252;-87
2021/11/17 05:30:55;;;;;;;82.53;27.50;;;9.50;99.90;;;;;;5077616;28;20303;-85
2021/11/17 05:33:39;;;;;;;77.43;27.53;;;9.60;99.90;;;;;;5057054;28;20190;-86
2021/11/17 05:36:17;;;;;;;73.37;27.20;;;9.60;99.90;;;;;;5075882;28;20191;-87
2021/11/17 05:38:56;;;;;;;76.30;27.83;;;9.60;99.90;;;;;;5076568;28;20216;-86
2021/11/17 05:41:40;;;;;;;76.57;27.10;;;9.60;99.90;;;;;;5043167;28;20245;-86
2021/11/17 05:44:28;;;;;;;75.90;26.70;;;9.70;99.90;;;;;;5059682;28;20195;-86
2021/11/17 05:47:13;;;;;;;72.50;27.53;;;9.80;99.90;;;;;;5076812;28;20186;-86
2021/11/17 05:50:07;;;;;;;80.97;28.43;;;9.80;99.90;;;;;;5054520;28;20299;-86
2021/11/17 05:53:23;;;;;;;75.60;27.50;;;9.90;99.90;;;;;;5075629;28;20203;-86
2021/11/17 05:56:07;;;;;;;72.40;27.33;;;10.00;99.90;;;;;;5045721;28;20269;-84
2021/11/17 05:58:42;;;;;;;73.70;25.87;;;10.00;99.90;;;;;;5075513;28;20187;-85
2021/11/17 06:01:17;;;;;;;74.33;26.47;;;9.80;99.90;;;;;;5077904;28;20189;-86
2021/11/17 06:04:06;;;;;;;78.57;26.53;;;9.80;99.90;;;;;;5075533;28;20233;-86
2021/11/17 06:06:39;;;;;;;78.30;27.90;;;9.80;99.90;;;;;;5059450;28;20185;-84
2021/11/17 06:09:07;;;;;;;75.00;26.00;;;9.80;99.90;;;;;;5057825;28;20344;-85
2021/11/17 06:11:41;;;;;;;71.57;26.20;;;9.90;99.90;;;;;;5060507;28;20258;-86
2021/11/17 06:14:13;;;;;;;82.33;28.17;;;9.90;99.90;;;;;;5057993;28;20559;-86
2021/11/17 06:16:42;;;;;;;76.63;27.17;;;9.90;99.90;;;;;;5082561;28;20261;-86
2021/11/17 06:19:10;;;;;;;73.00;27.93;;;9.90;99.90;;;;;;5096522;28;20187;-85
2021/11/17 06:21:40;;;;;;;69.67;27.00;;;9.80;99.90;;;;;;5061757;28;20270;-85
2021/11/17 06:24:08;;;;;;;68.97;26.10;;;9.90;99.90;;;;;;5058996;28;20203;-85
2021/11/17 06:26:43;;;;;;;62.00;25.77;;;9.90;99.90;;;;;;5058760;28;20241;-85
2021/11/17 06:29:35;;;;;;;66.10;25.57;;;9.90;99.90;;;;;;5059913;28;20212;-84
2021/11/17 06:32:02;;;;;;;65.80;24.97;;;9.90;99.90;;;;;;5073851;28;20632;-84
2021/11/17 06:34:49;;;;;;;62.20;25.00;;;9.90;99.90;;;;;;5077807;28;20419;-85
2021/11/17 06:37:18;;;;;;;65.60;26.00;;;10.00;99.90;;;;;;5058248;28;20207;-84
2021/11/17 06:39:47;;;;;;;67.33;24.50;;;10.00;99.90;;;;;;5061452;28;20232;-86
2021/11/17 06:42:20;;;;;;;56.53;23.27;;;10.10;99.90;;;;;;5092749;28;20621;-85
2021/11/17 06:44:46;;;;;;;53.70;22.03;;;10.10;99.90;;;;;;5062473;28;20182;-86
2021/11/17 06:47:12;;;;;;;56.90;22.40;;;10.10;99.90;;;;;;5065266;28;20219;-86
2021/11/17 06:49:38;;;;;;;57.37;23.33;;;10.10;99.90;;;;;;5096211;28;20195;-86
2021/11/17 06:52:05;;;;;;;54.10;21.33;;;10.20;99.90;;;;;;5077150;28;20662;-86
2021/11/17 06:54:32;;;;;;;59.57;23.13;;;10.10;99.90;;;;;;5059001;28;20184;-86
2021/11/17 06:56:57;;;;;;;53.80;22.73;;;10.10;99.90;;;;;;5057554;28;20196;-86
2021/11/17 06:59:24;;;;;;;60.57;23.13;;;10.20;99.90;;;;;;5076651;28;20180;-87
2021/11/17 07:01:50;;;;;;;62.27;23.70;;;10.20;99.90;;;;;;5060700;28;20262;-87
2021/11/17 07:04:15;;;;;;;60.90;23.33;;;10.10;99.90;;;;;;5075173;28;20287;-86
2021/11/17 07:06:41;;;;;;;66.00;24.37;;;10.20;99.90;;;;;;5075973;28;20211;-85
2021/11/17 07:09:09;;;;;;;61.73;23.17;;;10.20;99.90;;;;;;5074856;28;20237;-85
2021/11/17 07:11:37;;;;;;;62.37;23.97;;;10.20;99.90;;;;;;5075352;28;20601;-86
2021/11/17 07:14:13;;;;;;;70.63;24.90;;;10.10;99.90;;;;;;5093345;28;20194;-86
2021/11/17 07:16:41;;;;;;;66.63;24.33;;;10.10;99.90;;;;;;5057568;28;20634;-85
2021/11/17 07:19:09;;;;;;;69.53;24.70;;;10.10;99.90;;;;;;5075445;28;20180;-85
2021/11/17 07:21:37;;;;;;;68.80;24.17;;;10.10;99.90;;;;;;5077212;28;20180;-86
2021/11/17 07:24:05;;;;;;;74.33;25.07;;;10.20;99.90;;;;;;5067771;28;20176;-86
2021/11/17 07:26:31;;;;;;;68.23;23.80;;;10.30;99.90;;;;;;5077476;28;20184;-85
2021/11/17 07:28:56;;;;;;;66.97;24.00;;;10.30;99.90;;;;;;5077988;28;20525;-86
2021/11/17 07:31:23;;;;;;;72.57;23.50;;;10.30;99.90;;;;;;5078876;28;20556;-87
2021/11/17 07:33:49;;;;;;;70.70;25.17;;;10.30;99.90;;;;;;5096312;28;20183;-87
2021/11/17 07:36:16;;;;;;;69.57;25.23;;;10.30;99.90;;;;;;5062357;28;20171;-86
2021/11/17 07:38:43;;;;;;;77.03;26.07;;;10.30;99.90;;;;;;5078346;28;20242;-86
2021/11/17 07:41:09;;;;;;;67.20;24.53;;;10.30;99.90;;;;;;5065246;28;20184;-87
2021/11/17 07:43:35;;;;;;;70.43;25.03;;;10.30;99.90;;;;;;5078485;28;20172;-87
2021/11/17 07:46:01;;;;;;;71.83;24.73;;;10.20;99.90;;;;;;5079195;28;20186;-86
2021/11/17 07:48:28;;;;;;;69.20;25.23;;;10.20;99.90;;;;;;5059800;28;20176;-86
2021/11/17 07:50:56;;;;;;;67.60;24.97;;;10.20;99.90;;;;;;5078423;28;20206;-86
2021/11/17 07:53:24;;;;;;;70.87;24.23;;;10.20;99.90;;;;;;5080986;28;20180;-87
2021/11/17 07:55:52;;;;;;;73.53;25.03;;;10.20;99.90;;;;;;5063542;28;20189;-87
2021/11/17 07:58:21;;;;;;;74.67;26.90;;;10.30;99.90;;;;;;5064964;28;20175;-87
2021/11/17 08:00:50;;;;;;;78.70;28.63;;;10.30;99.90;;;;;;5062520;28;20175;-86
2021/11/17 08:03:18;;;;;;;78.60;28.27;;;10.30;99.90;;;;;;5080310;28;20295;-86
2021/11/17 08:05:47;;;;;;;89.47;30.37;;;10.40;99.90;;;;;;5077515;28;20180;-87
2021/11/17 08:08:12;;;;;;;82.33;30.23;;;10.30;99.90;;;;;;5062158;28;20195;-86
2021/11/17 08:10:40;;;;;;;119.20;45.27;;;10.30;99.90;;;;;;5062812;28;20220;-86
2021/11/17 08:13:07;;;;;;;73.73;25.83;;;10.40;99.90;;;;;;5077421;28;20181;-86
2021/11/17 08:15:33;;;;;;;77.50;25.77;;;10.30;99.90;;;;;;5095713;28;20533;-87
2021/11/17 08:17:59;;;;;;;76.03;24.83;;;10.30;99.90;;;;;;5078092;28;20204;-86
2021/11/17 08:20:25;;;;;;;73.20;25.70;;;10.30;99.90;;;;;;5061405;28;20218;-87
2021/11/17 08:22:54;;;;;;;69.67;26.07;;;10.30;99.90;;;;;;5062062;28;20180;-86
2021/11/17 08:25:23;;;;;;;80.43;25.70;;;10.40;99.90;;;;;;5077520;28;20199;-86
2021/11/17 08:27:50;;;;;;;73.70;25.53;;;10.40;99.90;;;;;;5064274;28;20181;-86
2021/11/17 08:30:18;;;;;;;75.87;28.20;;;10.60;99.90;;;;;;5065061;28;20207;-87
2021/11/17 08:32:44;;;;;;;79.37;26.70;;;10.60;99.90;;;;;;5075607;28;20187;-86
2021/11/17 08:35:13;;;;;;;77.53;24.63;;;10.60;99.90;;;;;;5077788;28;20190;-86
2021/11/17 08:37:39;;;;;;;75.63;24.47;;;10.60;99.90;;;;;;5076944;28;20180;-84
2021/11/17 08:40:19;;;;;;;67.50;24.37;;;10.70;99.90;;;;;;5061042;28;20636;-86
2021/11/17 08:42:45;;;;;;;61.70;22.60;;;10.70;99.90;;;;;;5080906;28;20183;-86
2021/11/17 08:45:11;;;;;;;68.40;23.00;;;10.60;99.90;;;;;;5081475;28;20657;-86
2021/11/17 08:47:38;;;;;;;64.13;23.00;;;10.70;99.90;;;;;;5083570;28;20185;-87
2021/11/17 08:50:06;;;;;;;63.57;22.27;;;10.80;99.90;;;;;;5061710;28;20253;-86
2021/11/17 08:52:33;;;;;;;65.83;22.70;;;10.80;99.90;;;;;;5077693;28;20177;-87
2021/11/17 08:54:58;;;;;;;63.67;23.13;;;10.80;99.90;;;;;;5078086;28;20174;-86
2021/11/17 08:57:24;;;;;;;59.07;22.40;;;10.90;99.90;;;;;;5078483;28;20233;-86
2021/11/17 08:59:51;;;;;;;70.23;24.47;;;10.90;99.90;;;;;;5077988;28;20269;-86
2021/11/17 09:02:17;;;;;;;63.27;21.83;;;10.90;99.90;;;;;;5060698;28;20181;-86
2021/11/17 09:04:44;;;;;;;67.80;23.47;;;11.00;99.90;;;;;;5062462;28;20246;-86
2021/11/17 09:07:11;;;;;;;59.07;21.93;;;11.10;99.90;;;;;;5079696;28;20646;-86
2021/11/17 09:09:37;;;;;;;62.77;22.63;;;11.10;99.90;;;;;;5059782;28;20746;-87
2021/11/17 09:12:03;;;;;;;58.60;21.67;;;11.20;99.90;;;;;;5078181;28;20220;-87
2021/11/17 09:14:30;;;;;;;61.50;22.03;;;11.20;99.90;;;;;;5057156;28;20176;-87
2021/11/17 09:16:56;;;;;;;57.60;22.67;;;11.30;99.90;;;;;;5075251;28;20188;-87
2021/11/17 09:19:22;;;;;;;58.47;21.80;;;11.40;99.90;;;;;;5078056;28;20196;-87
2021/11/17 09:21:49;;;;;;;50.27;20.40;;;11.40;99.90;;;;;;5075298;28;20182;-87
2021/11/17 09:24:17;;;;;;;55.00;20.37;;;11.30;99.90;;;;;;5077624;28;20173;-87
2021/11/17 09:26:46;;;;;;;53.20;19.93;;;11.30;99.90;;;;;;5059491;28;20185;-86
2021/11/17 09:29:12;;;;;;;60.57;21.03;;;11.30;99.90;;;;;;5078914;28;20275;-86
2021/11/17 09:31:41;;;;;;;50.50;20.00;;;11.30;99.90;;;;;;5082910;28;20255;-87
2021/11/17 09:34:08;;;;;;;57.37;21.87;;;11.40;99.90;;;;;;5062385;28;20183;-86
2021/11/17 09:36:35;;;;;;;55.77;22.20;;;11.50;99.90;;;;;;5065427;28;20174;-86
2021/11/17 09:39:04;;;;;;;56.53;22.23;;;11.60;99.90;;;;;;5059123;28;20228;-86
2021/11/17 09:41:37;;;;;;;62.20;22.60;;;11.70;99.90;;;;;;5076452;28;20195;-86
2021/11/17 09:44:09;;;;;;;54.83;21.50;;;11.70;99.90;;;;;;5075695;28;20196;-86
2021/11/17 09:46:38;;;;;;;63.90;22.93;;;11.70;99.90;;;;;;5075271;28;20294;-87
2021/11/17 09:49:09;;;;;;;57.30;24.13;;;11.70;99.90;;;;;;5068170;28;20217;-87
2021/11/17 09:51:40;;;;;;;69.13;27.77;;;11.70;99.90;;;;;;5074666;28;20178;-87
2021/11/17 09:54:11;;;;;;;58.63;24.20;;;11.80;99.90;;;;;;5076343;28;20619;-87
2021/11/17 09:57:00;;;;;;;67.30;23.67;;;11.90;99.90;;;;;;5090948;28;20209;-85
2021/11/17 09:59:28;;;;;;;60.37;23.50;;;11.70;99.90;;;;;;5072932;28;20918;-87
2021/11/17 10:02:10;;;;;;;63.57;23.90;;;11.90;99.90;;;;;;5077575;28;20267;-87
2021/11/17 10:04:57;;;;;;;60.20;22.63;;;12.00;99.90;;;;;;5058388;28;20232;-86
2021/11/17 10:12:50;;;;;;;76.90;33.73;;;12.40;99.90;;;;;;5092672;28;20264;-87
2021/11/17 10:15:20;;;;;;;68.80;28.47;;;12.40;99.90;;;;;;5059633;28;20178;-88
2021/11/17 10:17:53;;;;;;;70.97;28.07;;;12.30;99.90;;;;;;5062675;28;20177;-87
2021/11/17 10:20:19;;;;;;;61.53;25.63;;;12.30;99.90;;;;;;5065458;28;20182;-87
2021/11/17 10:23:05;;;;;;;70.80;27.03;;;12.30;99.90;;;;;;5075632;28;20545;-86
2021/11/17 10:26:02;;;;;;;64.80;24.23;;;12.30;99.90;;;;;;5057103;28;20187;-86
2021/11/17 10:28:41;;;;;;;61.67;24.00;;;12.30;99.90;;;;;;5092578;28;20195;-88
2021/11/17 10:31:17;;;;;;;63.20;24.37;;;12.40;99.90;;;;;;5059836;28;20214;-87
2021/11/17 10:34:04;;;;;;;68.03;25.10;;;12.40;99.90;;;;;;5086723;28;20179;-86
2021/11/17 10:37:07;;;;;;;63.13;24.90;;;12.30;99.90;;;;;;5073244;28;20190;-87
2021/11/17 10:39:38;;;;;;;61.07;23.77;;;12.40;99.90;;;;;;5084411;28;20325;-87
2021/11/17 10:42:10;;;;;;;77.20;27.03;;;12.40;99.90;;;;;;5076993;28;20293;-87
2021/11/17 10:44:50;;;;;;;59.07;23.40;;;12.40;99.90;;;;;;5073299;28;20200;-88
2021/11/17 10:47:23;;;;;;;63.70;23.97;;;12.30;99.90;;;;;;5074934;28;20218;-87
2021/11/17 10:49:52;;;;;;;66.93;25.40;;;12.20;99.90;;;;;;5062862;28;20204;-87
2021/11/17 10:52:29;;;;;;;62.40;23.47;;;12.20;99.90;;;;;;5075112;28;20196;-87
2021/11/17 10:54:57;;;;;;;63.00;24.07;;;12.20;99.90;;;;;;5075700;28;20236;-87
2021/11/17 10:57:27;;;;;;;67.10;26.30;;;12.10;99.90;;;;;;5063536;28;20172;-87
2021/11/17 10:59:55;;;;;;;64.93;25.13;;;12.20;99.90;;;;;;5079953;28;20667;-87
2021/11/17 11:02:22;;;;;;;60.87;23.03;;;12.20;99.90;;;;;;5086715;28;20213;-86
2021/11/17 11:04:50;;;;;;;62.60;23.93;;;12.30;99.90;;;;;;5064015;28;20191;-86
2021/11/17 11:07:28;;;;;;;60.00;24.30;;;12.40;99.90;;;;;;5096729;28;20177;-87
2021/11/17 11:10:12;;;;;;;59.90;25.43;;;12.40;99.90;;;;;;5081831;28;20203;-87
2021/11/17 11:12:39;;;;;;;64.23;26.70;;;12.50;99.90;;;;;;5061908;28;20213;-86
2021/11/17 11:15:18;;;;;;;55.90;23.47;;;12.50;99.90;;;;;;5075992;28;20186;-88
2021/11/17 11:18:08;;;;;;;61.57;26.40;;;12.50;99.90;;;;;;5078868;28;20206;-87
2021/11/17 11:20:44;;;;;;;65.40;26.53;;;12.50;99.90;;;;;;5081459;28;20281;-87
2021/11/17 11:23:13;;;;;;;59.40;24.23;;;12.50;99.90;;;;;;5061122;28;20190;-86
2021/11/17 11:25:47;;;;;;;63.10;25.90;;;12.40;99.90;;;;;;5079736;28;20196;-86
2021/11/17 11:28:26;;;;;;;64.20;26.33;;;12.40;99.90;;;;;;5077302;28;20185;-86
2021/11/17 11:31:01;;;;;;;65.27;25.50;;;12.40;99.90;;;;;;5081496;28;20711;-86
2021/11/17 11:33:34;;;;;;;74.53;28.60;;;12.40;99.90;;;;;;5079443;28;20210;-87
2021/11/17 11:36:12;;;;;;;72.87;30.07;;;12.30;99.90;;;;;;5079976;28;20728;-86
2021/11/17 11:38:51;;;;;;;69.90;29.27;;;12.30;99.90;;;;;;5078389;28;20651;-86
2021/11/17 11:41:29;;;;;;;79.47;29.03;;;12.30;99.90;;;;;;5061780;28;20184;-86
2021/11/17 11:44:16;;;;;;;70.23;26.37;;;12.30;99.90;;;;;;5077192;28;20279;-86
2021/11/17 11:47:07;;;;;;;65.80;26.20;;;12.20;99.90;;;;;;5060574;28;20550;-85
2021/11/17 11:49:44;;;;;;;62.23;26.97;;;12.10;99.90;;;;;;5062872;28;20326;-86
2021/11/17 11:52:28;;;;;;;65.40;26.73;;;12.00;99.90;;;;;;5078647;28;20185;-86
2021/11/17 11:54:54;;;;;;;68.37;27.27;;;12.00;99.90;;;;;;5078389;28;20291;-87
2021/11/17 11:57:31;;;;;;;61.37;26.63;;;12.10;99.90;;;;;;5062308;28;20293;-87
2021/11/17 12:00:42;;;;;;;64.83;26.27;;;12.10;99.90;;;;;;5075363;28;20210;-87
2021/11/17 12:03:13;;;;;;;64.43;28.13;;;12.20;99.90;;;;;;5064624;28;20195;-89
2021/11/17 12:05:39;;;;;;;67.53;28.07;;;12.20;99.90;;;;;;5077477;28;20559;-89
2021/11/17 12:08:23;;;;;;;73.07;35.23;;;12.30;99.90;;;;;;5062229;28;20257;-88
2021/11/17 12:11:31;;;;;;;67.53;30.40;;;12.50;99.90;;;;;;5076660;28;20214;-89
2021/11/17 12:14:07;;;;;;;66.77;28.47;;;12.60;99.90;;;;;;5064996;28;20226;-91
2021/11/17 12:16:39;;;;;;;60.50;26.60;;;12.60;99.90;;;;;;5078694;28;20269;-89
2021/11/17 12:19:09;;;;;;;61.80;26.83;;;12.70;99.90;;;;;;5064486;28;20189;-89
2021/11/17 12:21:41;;;;;;;62.03;27.63;;;12.90;99.90;;;;;;5079643;28;20176;-88
2021/11/17 12:24:34;;;;;;;56.23;27.13;;;12.90;99.90;;;;;;5062096;28;20191;-90
2021/11/17 12:27:11;;;;;;;56.77;25.87;;;13.00;99.90;;;;;;5065985;28;20187;-89
2021/11/17 12:30:02;;;;;;;62.67;29.63;;;13.30;99.90;;;;;;5062194;28;20302;-90
2021/11/17 12:32:54;;;;;;;62.23;26.93;;;13.60;99.90;;;;;;5096629;28;20175;-89
2021/11/17 12:35:28;;;;;;;60.57;27.77;;;13.80;99.90;;;;;;5077626;28;20206;-89
2021/11/17 12:38:02;;;;;;;69.47;29.43;;;13.80;99.90;;;;;;5095886;28;20182;-89
2021/11/17 12:40:35;;;;;;;71.60;35.37;;;13.90;99.90;;;;;;5078629;28;20228;-89
2021/11/17 12:43:06;;;;;;;65.13;31.23;;;13.90;99.90;;;;;;5078077;28;20179;-88
2021/11/17 12:45:41;;;;;;;72.13;32.63;;;14.00;99.90;;;;;;5076970;28;20284;-89
2021/11/17 12:48:32;;;;;;;64.33;30.77;;;13.90;99.90;;;;;;5077267;28;20188;-89
2021/11/17 12:51:04;;;;;;;69.37;29.90;;;14.00;99.90;;;;;;5077258;28;20575;-89
2021/11/17 12:53:55;;;;;;;63.33;29.40;;;13.90;99.90;;;;;;5080143;28;20176;-88
2021/11/17 12:56:34;;;;;;;59.60;28.17;;;13.80;99.90;;;;;;5091760;28;20688;-89
2021/11/17 12:59:36;;;;;;;60.67;28.37;;;13.80;99.90;;;;;;5081101;28;20279;-89
2021/11/17 13:02:26;;;;;;;59.03;30.30;;;14.00;99.90;;;;;;5074616;28;20188;-88
2021/11/17 13:05:21;;;;;;;54.23;28.10;;;14.20;99.90;;;;;;5049276;28;20579;-89
2021/11/17 13:07:58;;;;;;;52.00;25.93;;;14.30;99.90;;;;;;5055848;28;20227;-88
2021/11/17 13:10:44;;;;;;;54.10;26.17;;;14.20;99.90;;;;;;5075886;28;20223;-88
2021/11/17 13:13:18;;;;;;;54.80;27.67;;;14.20;99.90;;;;;;5061104;28;20194;-88
2021/11/17 13:16:06;;;;;;;50.60;24.83;;;14.30;99.90;;;;;;5065042;28;20669;-87
2021/11/17 13:18:44;;;;;;;44.30;22.40;;;14.30;99.90;;;;;;5076464;28;20641;-88
2021/11/17 13:21:22;;;;;;;47.67;22.50;;;13.80;99.90;;;;;;5053504;28;20196;-88
2021/11/17 13:23:48;;;;;;;53.87;23.80;;;13.50;99.90;;;;;;5075495;28;20180;-89
2021/11/17 13:26:36;;;;;;;44.03;23.50;;;13.60;99.90;;;;;;5078414;28;20189;-89
2021/11/17 13:29:21;;;;;;;48.40;23.50;;;13.50;99.90;;;;;;5053914;28;20175;-88
2021/11/17 13:31:53;;;;;;;46.83;24.07;;;13.40;99.90;;;;;;5075649;28;20199;-88
2021/11/17 13:34:43;;;;;;;41.90;23.23;;;13.60;99.90;;;;;;5059675;28;20186;-88
2021/11/17 13:37:23;;;;;;;46.50;24.03;;;13.70;99.90;;;;;;5076648;28;20203;-89
2021/11/17 13:39:56;;;;;;;47.93;23.60;;;13.50;99.90;;;;;;5073352;28;20211;-87
2021/11/17 13:42:24;;;;;;;47.17;23.20;;;13.60;99.90;;;;;;5074392;28;20231;-89
2021/11/17 13:44:51;;;;;;;48.20;23.93;;;13.60;99.90;;;;;;5080146;28;20194;-88
2021/11/17 13:47:19;;;;;;;46.80;24.97;;;13.70;99.90;;;;;;5075473;28;20544;-89
2021/11/17 13:49:48;;;;;;;45.17;23.90;;;13.80;99.90;;;;;;5079124;28;20210;-88
2021/11/17 13:52:17;;;;;;;47.93;23.90;;;13.80;99.90;;;;;;5076461;28;20173;-89
2021/11/17 13:54:43;;;;;;;48.03;25.07;;;13.90;99.90;;;;;;5075280;28;20627;-88
2021/11/17 13:57:11;;;;;;;40.83;23.97;;;14.00;99.90;;;;;;5076914;28;20260;-89
2021/11/17 13:59:37;;;;;;;46.37;24.77;;;14.10;99.90;;;;;;5080071;28;20294;-88
2021/11/17 14:02:04;;;;;;;38.50;21.33;;;14.20;99.90;;;;;;5079974;28;20245;-89
2021/11/17 14:04:30;;;;;;;43.83;22.60;;;14.30;99.90;;;;;;5076680;28;20189;-88
2021/11/17 14:06:57;;;;;;;37.97;20.60;;;14.40;99.90;;;;;;5077018;28;20184;-88
2021/11/17 14:09:24;;;;;;;38.03;17.60;;;14.40;99.90;;;;;;5064280;28;20587;-89
2021/11/17 14:11:50;;;;;;;37.93;18.67;;;14.50;99.90;;;;;;5095108;28;20189;-88
2021/11/17 14:14:16;;;;;;;36.27;17.47;;;14.50;99.90;;;;;;5062370;28;20266;-89
2021/11/17 14:16:41;;;;;;;32.30;17.67;;;14.50;99.90;;;;;;5075127;28;20192;-87
2021/11/17 14:19:08;;;;;;;36.07;16.80;;;14.50;99.90;;;;;;5077084;28;20548;-88
2021/11/17 14:21:34;;;;;;;31.43;14.83;;;14.40;99.90;;;;;;5058760;28;20214;-89
2021/11/17 14:24:00;;;;;;;30.23;15.00;;;14.40;99.90;;;;;;5076123;28;20653;-88
2021/11/17 14:26:26;;;;;;;32.73;15.40;;;14.40;99.90;;;;;;5058429;28;20184;-88
2021/11/17 14:28:57;;;;;;;27.47;13.03;;;14.30;99.90;;;;;;5059957;28;20548;-88
2021/11/17 14:31:34;;;;;;;30.00;11.10;;;14.00;99.90;;;;;;5077002;28;20200;-88
2021/11/17 14:34:01;;;;;;;27.83;10.23;;;13.70;99.90;;;;;;5060962;28;20185;-88
2021/11/17 14:36:32;;;;;;;27.90;10.20;;;13.30;99.90;;;;;;5058953;28;20690;-87
2021/11/17 14:39:01;;;;;;;27.57;10.10;;;13.00;99.90;;;;;;5076388;28;20230;-85
2021/11/17 14:41:28;;;;;;;23.83;9.13;;;13.00;99.90;;;;;;5060272;28;20195;-90
2021/11/17 14:43:54;;;;;;;27.40;8.40;;;12.90;99.90;;;;;;5077793;28;20313;-87
2021/11/17 14:46:19;;;;;;;20.67;6.93;;;12.80;99.90;;;;;;5059273;28;20198;-86
2021/11/17 14:48:48;;;;;;;19.57;6.13;;;12.60;99.90;;;;;;5084088;28;20191;-87
2021/11/17 14:51:14;;;;;;;23.40;5.53;;;12.50;99.90;;;;;;5074747;28;20211;-87
2021/11/17 14:53:43;;;;;;;21.87;5.33;;;12.40;99.90;;;;;;5076594;28;20577;-87
2021/11/17 14:56:10;;;;;;;21.20;5.23;;;12.20;99.90;;;;;;5074823;28;20234;-87
2021/11/17 14:58:37;;;;;;;21.97;4.37;;;12.20;99.90;;;;;;5071548;28;20174;-87
2021/11/17 15:01:07;;;;;;;16.63;4.23;;;12.10;99.90;;;;;;5058971;28;20191;-87
2021/11/17 15:03:33;;;;;;;23.30;4.00;;;12.20;99.90;;;;;;5075318;28;20175;-87
2021/11/17 15:05:59;;;;;;;24.37;4.60;;;12.30;99.90;;;;;;5075125;28;20680;-88
2021/11/17 15:08:25;;;;;;;21.27;4.50;;;12.30;99.90;;;;;;5076188;28;20183;-87
2021/11/17 15:10:51;;;;;;;27.10;6.97;;;12.10;99.90;;;;;;5076249;28;20232;-86
2021/11/17 15:13:17;;;;;;;28.50;7.07;;;12.10;99.90;;;;;;5075785;28;20231;-87
2021/11/17 15:15:46;;;;;;;28.67;7.20;;;12.20;99.90;;;;;;5075411;28;20553;-87
2021/11/17 15:18:16;;;;;;;26.17;8.20;;;12.30;99.90;;;;;;5060046;28;20190;-87
2021/11/17 15:20:43;;;;;;;20.60;5.57;;;12.40;99.90;;;;;;5094441;28;20236;-87
2021/11/17 15:23:09;;;;;;;27.60;7.90;;;12.40;99.90;;;;;;5057870;28;20214;-86
2021/11/17 15:25:39;;;;;;;26.33;10.10;;;12.40;99.90;;;;;;5059529;28;20195;-86
2021/11/17 15:28:10;;;;;;;17.70;6.27;;;12.40;99.90;;;;;;5070119;28;20277;-86
2021/11/17 15:30:41;;;;;;;22.07;7.13;;;12.30;99.90;;;;;;5076073;28;20198;-87
2021/11/17 15:33:07;;;;;;;21.13;6.20;;;12.30;99.90;;;;;;5073782;28;20205;-86
2021/11/17 15:35:33;;;;;;;24.00;6.30;;;12.20;99.90;;;;;;5058868;28;20214;-86
2021/11/17 15:38:00;;;;;;;23.73;7.33;;;12.20;99.90;;;;;;5062033;28;20585;-86
2021/11/17 15:40:32;;;;;;;27.80;7.77;;;12.10;99.90;;;;;;5074615;28;20225;-85
2021/11/17 15:42:59;;;;;;;26.23;9.93;;;12.10;99.90;;;;;;5077122;28;20192;-86